Valle Piedras, Puerto Rico
Current Conditions -  °F | °C
As of 6:53 PM on Wednesday 17 Dec 2014 (Local Time) from TJNR Reporting Station
Scattered Clouds Scattered Clouds  
Wind Chill: 76°   Ceiling: Unl
Heat Index: 76°   Visibility: 10mi
Dew Point: 68°   Wind: 8mph
Humidity: 76%   Direction: 360°N
Pressure: 30.03"   Gusts: NA
Location:  18.1853°N, 65.8667°W
Report Text: TJNR 172253Z AUTO 36007KT 10SM SCT070 24/20 A3003 RMK AO2 SLP170 T02440200 $
Loading
Personal Weather Stations






























Interactive Weather Map New forecast layout! Learn more

10-Day Weather Forecast

Advertisements
Track Severe Weather on mobile